createdAt,value
2019-02-24T00:00:41.468Z,102692.27
2019-02-24T00:03:10.077Z,102692.27
2019-02-24T00:05:38.740Z,102690.98
2019-02-24T00:08:07.386Z,102685.66
2019-02-24T00:10:36.104Z,102687.39
2019-02-24T00:13:04.734Z,102687.81
2019-02-24T00:15:33.252Z,102687.81
2019-02-24T00:18:01.722Z,102696.66
2019-02-24T00:20:30.202Z,102696.23
2019-02-24T00:22:58.686Z,102700.70
2019-02-24T00:25:27.218Z,102700.72
2019-02-24T00:27:55.700Z,102699.46
2019-02-24T00:30:24.159Z,102701.75
2019-02-24T00:32:52.770Z,102705.76
2019-02-24T00:35:21.510Z,102708.45
2019-02-24T00:37:50.006Z,102701.48
2019-02-24T00:40:18.497Z,102701.97
2019-02-24T00:42:46.957Z,102692.33
2019-02-24T00:45:15.486Z,102695.45
2019-02-24T00:47:43.980Z,102695.03
2019-02-24T00:50:12.567Z,102691.50
2019-02-24T00:52:41.307Z,102687.48
2019-02-24T00:55:10.020Z,102680.86
2019-02-24T00:57:38.622Z,102681.23
2019-02-24T01:00:10.464Z,102679.44
2019-02-24T01:02:39.017Z,102679.44
2019-02-24T01:05:08.861Z,102676.80
2019-02-24T01:07:37.336Z,102675.50
2019-02-24T01:10:08.657Z,102671.13
2019-02-24T01:12:37.142Z,102669.34
2019-02-24T01:15:08.709Z,102664.88
2019-02-24T01:17:37.173Z,102671.02
2019-02-24T01:20:08.393Z,102674.55
2019-02-24T01:22:37.132Z,102678.51
2019-02-24T01:25:06.026Z,102674.55
2019-02-24T01:27:34.475Z,102667.89
2019-02-24T01:30:03.130Z,102670.41
2019-02-24T01:32:31.587Z,102667.66
2019-02-24T01:35:00.092Z,102669.73
2019-02-24T01:37:28.941Z,102668.80
2019-02-24T01:39:57.393Z,102668.70
2019-02-24T01:42:25.980Z,102667.31
2019-02-24T01:44:54.526Z,102668.16
2019-02-24T01:47:23.373Z,102664.60
2019-02-24T01:49:52.059Z,102665.45
2019-02-24T01:52:20.892Z,102658.36
2019-02-24T01:54:49.428Z,102655.64
2019-02-24T01:57:17.913Z,102665.23
2019-02-24T01:59:46.618Z,102663.37
2019-02-24T02:02:15.148Z,102657.16
2019-02-24T02:04:43.654Z,102654.47
2019-02-24T02:07:12.142Z,102656.23
2019-02-24T02:09:40.615Z,102665.42
2019-02-24T02:12:09.215Z,102666.30
2019-02-24T02:14:37.721Z,102660.49
2019-02-24T02:17:06.168Z,102656.52
2019-02-24T02:19:34.648Z,102653.43
2019-02-24T02:22:03.180Z,102647.66
2019-02-24T02:24:31.671Z,102650.75
2019-02-24T02:27:00.140Z,102653.39
2019-02-24T02:29:28.634Z,102647.22
2019-02-24T02:31:57.101Z,102644.05
2019-02-24T02:34:25.590Z,102635.66
2019-02-24T02:36:54.075Z,102632.50
2019-02-24T02:39:22.812Z,102631.61
2019-02-24T02:41:51.232Z,102636.02
2019-02-24T02:44:19.730Z,102628.97
2019-02-24T02:46:48.664Z,102631.25
2019-02-24T02:49:17.153Z,102625.12
2019-02-24T02:51:45.604Z,102627.41
2019-02-24T02:54:14.082Z,102626.56
2019-02-24T02:56:42.635Z,102628.85
2019-02-24T02:59:11.119Z,102636.87
2019-02-24T03:01:39.764Z,102633.86
2019-02-24T03:04:08.351Z,102638.34
2019-02-24T03:06:41.504Z,102642.34
2019-02-24T03:09:10.895Z,102642.45
2019-02-24T03:11:39.450Z,102643.45
2019-02-24T03:14:07.934Z,102638.70
2019-02-24T03:16:36.409Z,102637.85
2019-02-24T03:19:04.894Z,102633.92
2019-02-24T03:21:33.403Z,102638.36
2019-02-24T03:24:01.906Z,102654.22
2019-02-24T03:26:30.370Z,102652.05
2019-02-24T03:29:04.143Z,102652.09
2019-02-24T03:31:29.118Z,102662.72
2019-02-24T03:33:57.598Z,102658.81
2019-02-24T03:36:26.161Z,102657.12
2019-02-24T03:38:54.643Z,102651.59
2019-02-24T03:41:23.250Z,102651.59
2019-02-24T03:43:51.786Z,102659.05
2019-02-24T03:46:20.334Z,102662.61
2019-02-24T03:48:48.813Z,102656.44
2019-02-24T03:51:17.296Z,102658.64
2019-02-24T03:53:46.021Z,102661.72
2019-02-24T03:56:14.617Z,102664.80
2019-02-24T03:58:43.253Z,102672.31
2019-02-24T04:01:11.845Z,102668.80
2019-02-24T04:03:40.493Z,102663.48
2019-02-24T04:06:09.029Z,102671.85
2019-02-24T04:08:37.484Z,102670.53
2019-02-24T04:11:05.960Z,102668.25
2019-02-24T04:13:36.023Z,102669.07
2019-02-24T04:16:04.561Z,102665.11
2019-02-24T04:18:33.050Z,102674.33
2019-02-24T04:21:02.554Z,102675.62
2019-02-24T04:23:31.075Z,102681.75
2019-02-24T04:25:59.641Z,102680.02
2019-02-24T04:28:28.232Z,102676.53
2019-02-24T04:30:56.782Z,102683.20
2019-02-24T04:33:25.265Z,102677.94
2019-02-24T04:35:53.739Z,102687.65
2019-02-24T04:38:22.226Z,102683.30
2019-02-24T04:40:50.713Z,102686.46
2019-02-24T04:43:19.181Z,102684.29
2019-02-24T04:45:47.899Z,102681.23
2019-02-24T04:48:16.386Z,102678.64
2019-02-24T04:50:44.930Z,102683.97
2019-02-24T04:53:13.412Z,102681.81
2019-02-24T04:55:41.907Z,102685.38
2019-02-24T04:58:10.619Z,102677.50
2019-02-24T05:00:39.118Z,102670.92
2019-02-24T05:03:07.573Z,102663.87
2019-02-24T05:05:36.031Z,102673.17
2019-02-24T05:08:04.512Z,102677.13
2019-02-24T05:10:32.981Z,102672.75
2019-02-24T05:13:01.465Z,102676.75
2019-02-24T05:15:29.958Z,102671.05
2019-02-24T05:17:58.428Z,102674.16
2019-02-24T05:20:26.919Z,102676.38
2019-02-24T05:22:55.386Z,102681.67
2019-02-24T05:25:23.870Z,102681.69
2019-02-24T05:27:52.325Z,102680.84
2019-02-24T05:30:20.867Z,102681.34
2019-02-24T05:32:49.422Z,102682.25
2019-02-24T05:35:17.892Z,102684.89
2019-02-24T05:37:46.399Z,102682.73
2019-02-24T05:40:14.932Z,102680.09
2019-02-24T05:42:43.449Z,102685.38
2019-02-24T05:45:12.088Z,102673.97
2019-02-24T05:47:40.613Z,102674.87
2019-02-24T05:50:09.251Z,102672.25
2019-02-24T05:52:37.733Z,102676.64
2019-02-24T05:55:06.979Z,102670.03
2019-02-24T05:57:35.496Z,102668.22
2019-02-24T06:00:04.492Z,102673.01
2019-02-24T06:02:32.955Z,102671.22
2019-02-24T06:05:01.523Z,102666.78
2019-02-24T06:07:29.989Z,102661.93
2019-02-24T06:09:58.483Z,102659.28
2019-02-24T06:12:26.954Z,102662.32
2019-02-24T06:14:55.433Z,102664.91
2019-02-24T06:17:24.055Z,102654.36
2019-02-24T06:19:52.530Z,102663.16
2019-02-24T06:22:21.017Z,102666.23
2019-02-24T06:24:49.467Z,102667.11
2019-02-24T06:27:17.998Z,102664.49
2019-02-24T06:29:46.627Z,102668.92
2019-02-24T06:32:15.088Z,102675.95
2019-02-24T06:34:43.589Z,102674.21
2019-02-24T06:37:12.067Z,102668.05
2019-02-24T06:39:40.684Z,102668.94
2019-02-24T06:42:09.213Z,102673.73
2019-02-24T06:44:37.758Z,102672.39
2019-02-24T06:47:06.222Z,102663.08
2019-02-24T06:49:34.712Z,102663.92
2019-02-24T06:52:03.172Z,102672.66
2019-02-24T06:54:31.637Z,102672.59
2019-02-24T06:57:00.131Z,102664.19
2019-02-24T06:59:28.677Z,102661.44
2019-02-24T07:01:57.321Z,102659.59
2019-02-24T07:04:25.791Z,102657.77
2019-02-24T07:06:54.255Z,102663.81
2019-02-24T07:09:22.734Z,102665.92
2019-02-24T07:11:51.426Z,102672.03
2019-02-24T07:14:20.003Z,102682.11
2019-02-24T07:16:48.525Z,102675.88
2019-02-24T07:19:16.986Z,102685.92
2019-02-24T07:21:45.479Z,102690.70
2019-02-24T07:24:13.950Z,102694.17
2019-02-24T07:26:42.510Z,102697.16
2019-02-24T07:29:11.093Z,102700.11
2019-02-24T07:31:39.613Z,102698.68
2019-02-24T07:34:08.091Z,102698.54
2019-02-24T07:36:36.540Z,102697.87
2019-02-24T07:39:05.462Z,102708.39
2019-02-24T07:41:33.915Z,102705.85
2019-02-24T07:44:02.769Z,102701.90
2019-02-24T07:46:31.341Z,102696.23
2019-02-24T07:48:59.867Z,102703.61
2019-02-24T07:51:28.346Z,102708.57
2019-02-24T07:53:56.935Z,102714.20
2019-02-24T07:56:25.570Z,102713.02
2019-02-24T07:58:54.096Z,102712.59
2019-02-24T08:01:22.572Z,102715.67
2019-02-24T08:03:51.079Z,102713.63
2019-02-24T08:06:19.610Z,102715.59
2019-02-24T08:08:48.246Z,102713.44
2019-02-24T08:11:16.701Z,102710.83
2019-02-24T08:13:45.458Z,102711.20
2019-02-24T08:16:13.968Z,102714.66
2019-02-24T08:18:49.223Z,102724.33
2019-02-24T08:21:12.752Z,102725.39
2019-02-24T08:23:41.189Z,102728.17
2019-02-24T08:26:09.721Z,102728.17
2019-02-24T08:28:38.333Z,102728.77
2019-02-24T08:31:06.861Z,102725.56
2019-02-24T08:33:35.424Z,102731.41
2019-02-24T08:36:03.985Z,102730.55
2019-02-24T08:38:34.590Z,102732.81
2019-02-24T08:41:03.599Z,102736.81
2019-02-24T08:43:32.096Z,102736.21
2019-02-24T08:46:00.563Z,102731.53
2019-02-24T08:48:29.060Z,102734.69
2019-02-24T08:50:57.514Z,102730.24
2019-02-24T08:53:26.008Z,102727.47
2019-02-24T08:55:54.534Z,102724.97
2019-02-24T08:58:23.017Z,102721.91
2019-02-24T09:00:51.529Z,102720.84
2019-02-24T09:03:20.344Z,102720.02
2019-02-24T09:05:48.859Z,102724.24
2019-02-24T09:08:17.570Z,102730.03
2019-02-24T09:10:46.141Z,102727.45
2019-02-24T09:13:14.616Z,102723.78
2019-02-24T09:15:43.076Z,102726.59
2019-02-24T09:18:11.622Z,102729.73
2019-02-24T09:20:40.276Z,102722.94
2019-02-24T09:23:08.843Z,102727.87
2019-02-24T09:25:37.373Z,102727.26
2019-02-24T09:28:05.980Z,102724.48
2019-02-24T09:30:34.538Z,102728.48
2019-02-24T09:33:03.126Z,102734.42
2019-02-24T09:35:31.603Z,102733.21
2019-02-24T09:38:00.088Z,102726.44
2019-02-24T09:40:28.726Z,102736.84
2019-02-24T09:42:57.481Z,102742.39
2019-02-24T09:45:26.109Z,102744.92
2019-02-24T09:47:54.632Z,102757.12
2019-02-24T09:50:23.191Z,102755.23
2019-02-24T09:52:51.645Z,102755.77
2019-02-24T09:55:20.133Z,102758.80
2019-02-24T09:57:48.608Z,102766.94
2019-02-24T10:00:17.638Z,102763.13
2019-02-24T10:02:46.167Z,102761.72
2019-02-24T10:05:14.635Z,102764.20
2019-02-24T10:07:43.130Z,102766.03
2019-02-24T10:10:12.937Z,102768.84
2019-02-24T10:12:41.580Z,102756.48
2019-02-24T10:15:14.566Z,102757.94
2019-02-24T10:17:43.216Z,102763.66
2019-02-24T10:20:12.904Z,102766.71
2019-02-24T10:22:41.367Z,102761.86
2019-02-24T10:25:10.493Z,102766.28
2019-02-24T10:27:39.119Z,102765.94
2019-02-24T10:30:13.655Z,102768.02
2019-02-24T10:32:41.700Z,102767.16
2019-02-24T10:35:10.405Z,102764.06
2019-02-24T10:37:38.910Z,102765.11
2019-02-24T10:40:12.394Z,102754.19
2019-02-24T10:42:41.175Z,102767.20
2019-02-24T10:45:15.737Z,102759.91
2019-02-24T10:47:44.422Z,102755.87
2019-02-24T10:50:15.139Z,102748.56
2019-02-24T10:52:43.701Z,102750.74
2019-02-24T10:55:12.484Z,102744.27
2019-02-24T10:57:41.120Z,102744.83
2019-02-24T11:00:14.593Z,102733.64
2019-02-24T11:02:43.212Z,102738.44
2019-02-24T11:05:11.945Z,102740.42
2019-02-24T11:07:40.429Z,102745.74
2019-02-24T11:10:10.069Z,102751.03
2019-02-24T11:12:38.670Z,102748.30
2019-02-24T11:15:09.479Z,102751.01
2019-02-24T11:17:38.249Z,102753.91
2019-02-24T11:20:09.884Z,102752.00
2019-02-24T11:22:38.473Z,102747.84
2019-02-24T11:25:08.584Z,102747.74
2019-02-24T11:27:37.181Z,102747.94
2019-02-24T11:30:08.623Z,102747.41
2019-02-24T11:32:37.168Z,102758.91
2019-02-24T11:35:10.464Z,102749.98
2019-02-24T11:37:39.112Z,102757.40
2019-02-24T11:40:10.633Z,102753.13
2019-02-24T11:42:39.089Z,102754.69
2019-02-24T11:45:09.222Z,102756.90
2019-02-24T11:47:37.852Z,102749.75
2019-02-24T11:50:09.092Z,102743.91
2019-02-24T11:52:37.624Z,102732.72
2019-02-24T11:55:07.623Z,102732.22
2019-02-24T11:57:36.171Z,102738.58
2019-02-24T12:00:06.982Z,102739.64
2019-02-24T12:02:35.626Z,102734.49
2019-02-24T12:05:05.745Z,102728.03
2019-02-24T12:07:34.236Z,102732.88
2019-02-24T12:10:02.786Z,102733.66
2019-02-24T12:12:31.258Z,102728.39
2019-02-24T12:14:59.813Z,102729.67
2019-02-24T12:17:28.426Z,102728.50
2019-02-24T12:19:56.979Z,102719.68
2019-02-24T12:22:25.538Z,102722.16
2019-02-24T12:24:54.088Z,102719.93
2019-02-24T12:27:22.564Z,102724.96
2019-02-24T12:29:51.151Z,102722.64
2019-02-24T12:32:19.597Z,102717.52
2019-02-24T12:34:48.108Z,102721.98
2019-02-24T12:37:17.491Z,102707.81
2019-02-24T12:39:46.264Z,102709.20
2019-02-24T12:42:14.741Z,102696.58
2019-02-24T12:44:43.283Z,102703.42
2019-02-24T12:47:11.727Z,102704.66
2019-02-24T12:49:40.291Z,102704.78
2019-02-24T12:52:08.902Z,102705.67
2019-02-24T12:54:37.461Z,102702.99
2019-02-24T12:57:05.985Z,102697.77
2019-02-24T12:59:34.557Z,102698.97
2019-02-24T13:02:05.743Z,102684.72
2019-02-24T13:04:33.429Z,102687.53
2019-02-24T13:07:01.948Z,102682.20
2019-02-24T13:09:30.443Z,102693.67
2019-02-24T13:11:59.030Z,102684.44
2019-02-24T13:14:27.756Z,102676.25
2019-02-24T13:16:56.824Z,102672.97
2019-02-24T13:19:25.310Z,102668.00
2019-02-24T13:21:53.957Z,102662.83
2019-02-24T13:24:22.619Z,102660.02
2019-02-24T13:26:51.299Z,102663.48
2019-02-24T13:29:20.051Z,102667.91
2019-02-24T13:31:48.661Z,102662.24
2019-02-24T13:34:17.204Z,102660.88
2019-02-24T13:36:45.663Z,102656.42
2019-02-24T13:39:14.264Z,102656.29
2019-02-24T13:41:43.032Z,102654.60
2019-02-24T13:44:11.632Z,102654.95
2019-02-24T13:46:40.138Z,102662.03
2019-02-24T13:49:08.683Z,102652.42
2019-02-24T13:51:37.185Z,102660.57
2019-02-24T13:54:05.781Z,102658.61
2019-02-24T13:56:34.223Z,102654.98
2019-02-24T13:59:02.782Z,102650.17
2019-02-24T14:01:31.249Z,102656.42
2019-02-24T14:03:59.790Z,102659.91
2019-02-24T14:06:28.347Z,102662.97
2019-02-24T14:08:56.866Z,102658.31
2019-02-24T14:11:25.431Z,102658.31
2019-02-24T14:13:53.997Z,102656.23
2019-02-24T14:16:22.445Z,102657.61
2019-02-24T14:18:50.925Z,102666.26
2019-02-24T14:21:19.644Z,102666.06
2019-02-24T14:23:48.158Z,102668.66
2019-02-24T14:26:16.736Z,102664.09
2019-02-24T14:28:45.263Z,102660.21
2019-02-24T14:31:13.713Z,102667.77
2019-02-24T14:33:42.247Z,102668.38
2019-02-24T14:36:10.778Z,102663.68
2019-02-24T14:38:39.396Z,102660.62
2019-02-24T14:41:08.959Z,102662.59
2019-02-24T14:43:37.709Z,102667.39
2019-02-24T14:46:06.244Z,102663.58
2019-02-24T14:48:34.700Z,102654.59
2019-02-24T14:51:04.353Z,102656.16
2019-02-24T14:53:34.136Z,102665.05
2019-02-24T14:56:02.689Z,102659.16
2019-02-24T14:58:31.159Z,102663.08
2019-02-24T15:01:00.735Z,102659.50
2019-02-24T15:03:29.379Z,102656.63
2019-02-24T15:05:57.972Z,102661.27
2019-02-24T15:08:26.789Z,102662.22
2019-02-24T15:10:55.403Z,102665.50
2019-02-24T15:13:24.160Z,102671.45
2019-02-24T15:15:52.682Z,102665.48
2019-02-24T15:18:21.180Z,102665.00
2019-02-24T15:20:49.769Z,102672.34
2019-02-24T15:23:18.516Z,102668.08
2019-02-24T15:25:47.153Z,102664.33
2019-02-24T15:28:15.663Z,102668.56
2019-02-24T15:30:44.272Z,102664.70
2019-02-24T15:33:12.862Z,102674.14
2019-02-24T15:35:41.432Z,102669.33
2019-02-24T15:38:09.990Z,102669.12
2019-02-24T15:40:38.586Z,102678.95
2019-02-24T15:43:07.159Z,102670.84
2019-02-24T15:45:35.791Z,102678.34
2019-02-24T15:48:04.392Z,102685.45
2019-02-24T15:50:32.941Z,102673.86
2019-02-24T15:53:01.493Z,102674.25
2019-02-24T15:55:30.027Z,102681.34
2019-02-24T15:57:58.697Z,102679.41
2019-02-24T16:00:27.296Z,102680.71
2019-02-24T16:03:01.531Z,102685.31
2019-02-24T16:05:26.417Z,102683.45
2019-02-24T16:07:54.911Z,102683.89
2019-02-24T16:10:23.727Z,102689.89
2019-02-24T16:12:52.337Z,102684.56
2019-02-24T16:15:23.477Z,102679.15
2019-02-24T16:17:52.068Z,102682.18
2019-02-24T16:20:23.183Z,102674.55
2019-02-24T16:22:51.767Z,102674.95
2019-02-24T16:25:20.488Z,102670.89
2019-02-24T16:27:49.037Z,102669.67
2019-02-24T16:30:17.932Z,102671.22
2019-02-24T16:32:46.508Z,102664.47
2019-02-24T16:35:16.607Z,102671.94
2019-02-24T16:37:45.210Z,102673.22
2019-02-24T16:40:19.602Z,102677.77
2019-02-24T16:42:48.123Z,102676.45
2019-02-24T16:45:17.099Z,102675.66
2019-02-24T16:47:45.768Z,102686.66
2019-02-24T16:50:18.542Z,102686.66
2019-02-24T16:52:47.088Z,102693.39
2019-02-24T16:55:16.481Z,102686.15
2019-02-24T16:57:45.096Z,102683.70
2019-02-24T17:00:27.875Z,102676.86
2019-02-24T17:02:57.956Z,102683.59
2019-02-24T17:05:26.863Z,102684.58
2019-02-24T17:07:55.317Z,102685.61
2019-02-24T17:10:28.363Z,102686.94
2019-02-24T17:12:57.421Z,102689.16
2019-02-24T17:15:26.189Z,102696.34
2019-02-24T17:17:54.846Z,102693.17
2019-02-24T17:20:24.840Z,102696.52
2019-02-24T17:22:53.363Z,102694.95
2019-02-24T17:25:21.983Z,102709.88
2019-02-24T17:27:50.514Z,102710.63
2019-02-24T17:30:19.145Z,102716.19
2019-02-24T17:32:47.692Z,102710.97
2019-02-24T17:35:16.214Z,102719.47
2019-02-24T17:37:44.847Z,102715.57
2019-02-24T17:40:19.630Z,102712.50
2019-02-24T17:42:48.441Z,102716.91
2019-02-24T17:45:17.056Z,102719.62
2019-02-24T17:47:45.683Z,102714.67
2019-02-24T17:50:15.677Z,102716.00
2019-02-24T17:52:44.367Z,102718.17
2019-02-24T17:55:14.479Z,102718.61
2019-02-24T17:57:43.096Z,102716.56
2019-02-24T18:00:29.998Z,102715.36
2019-02-24T18:02:58.661Z,102718.13
2019-02-24T18:05:27.277Z,102716.86
2019-02-24T18:07:56.045Z,102715.56
2019-02-24T18:10:24.673Z,102712.15
2019-02-24T18:12:53.202Z,102719.02
2019-02-24T18:15:21.848Z,102714.69
2019-02-24T18:17:50.325Z,102715.73
2019-02-24T18:20:20.660Z,102705.97
2019-02-24T18:22:49.403Z,102703.82
2019-02-24T18:25:17.893Z,102705.22
2019-02-24T18:27:46.440Z,102696.34
2019-02-24T18:30:31.066Z,102690.13
2019-02-24T18:32:59.867Z,102692.44
2019-02-24T18:35:28.496Z,102683.55
2019-02-24T18:37:57.266Z,102686.38
2019-02-24T18:40:25.800Z,102679.70
2019-02-24T18:43:00.139Z,102685.09
2019-02-24T18:45:24.979Z,102683.84
2019-02-24T18:47:53.494Z,102689.44
2019-02-24T18:50:22.330Z,102696.53
2019-02-24T18:52:50.804Z,102689.08
2019-02-24T18:55:19.595Z,102681.45
2019-02-24T18:57:48.030Z,102691.41
2019-02-24T19:00:18.590Z,102691.72
2019-02-24T19:02:47.170Z,102684.86
2019-02-24T19:05:15.764Z,102685.48
2019-02-24T19:07:44.321Z,102686.16
2019-02-24T19:10:17.879Z,102682.84
2019-02-24T19:12:46.526Z,102694.73
2019-02-24T19:15:23.064Z,102696.47
2019-02-24T19:17:51.769Z,102701.39
2019-02-24T19:20:21.708Z,102700.94
2019-02-24T19:22:50.240Z,102696.50
2019-02-24T19:25:18.796Z,102694.22
2019-02-24T19:27:47.245Z,102695.50
2019-02-24T19:30:17.402Z,102699.82
2019-02-24T19:32:46.202Z,102703.61
2019-02-24T19:35:16.105Z,102699.80
2019-02-24T19:37:45.049Z,102706.24
2019-02-24T19:40:18.266Z,102709.14
2019-02-24T19:42:46.800Z,102712.06
2019-02-24T19:45:17.232Z,102707.85
2019-02-24T19:47:45.839Z,102707.63
2019-02-24T19:50:16.760Z,102706.45
2019-02-24T19:52:45.557Z,102703.86
2019-02-24T19:55:15.255Z,102704.73
2019-02-24T19:57:44.204Z,102703.91
2019-02-24T20:00:18.294Z,102706.72
2019-02-24T20:02:46.886Z,102714.81
2019-02-24T20:05:15.520Z,102716.29
2019-02-24T20:07:44.098Z,102723.03
2019-02-24T20:10:30.326Z,102722.72
2019-02-24T20:12:58.793Z,102722.81
2019-02-24T20:15:27.330Z,102720.70
2019-02-24T20:17:55.910Z,102715.88
2019-02-24T20:20:24.440Z,102714.60
2019-02-24T20:22:53.135Z,102720.86
2019-02-24T20:25:23.044Z,102725.36
2019-02-24T20:27:51.626Z,102725.48
2019-02-24T20:30:31.942Z,102732.19
2019-02-24T20:33:00.775Z,102730.49
2019-02-24T20:35:29.453Z,102733.60
2019-02-24T20:37:57.991Z,102730.06
2019-02-24T20:40:26.581Z,102733.66
2019-02-24T20:42:55.197Z,102736.44
2019-02-24T20:45:24.637Z,102742.24
2019-02-24T20:47:53.426Z,102739.27
2019-02-24T20:50:27.191Z,102738.50
2019-02-24T20:52:56.045Z,102740.83
2019-02-24T20:55:24.514Z,102739.56
2019-02-24T20:57:53.109Z,102743.22
2019-02-24T21:00:30.242Z,102745.09
2019-02-24T21:02:58.851Z,102742.52
2019-02-24T21:05:27.464Z,102740.80
2019-02-24T21:07:56.248Z,102744.39
2019-02-24T21:10:24.769Z,102750.20
2019-02-24T21:12:53.220Z,102751.58
2019-02-24T21:15:21.802Z,102744.55
2019-02-24T21:17:50.313Z,102749.86
2019-02-24T21:20:26.949Z,102747.27
2019-02-24T21:22:55.903Z,102748.63
2019-02-24T21:25:24.457Z,102750.42
2019-02-24T21:27:53.038Z,102746.44
2019-02-24T21:30:22.134Z,102740.23
2019-02-24T21:32:50.791Z,102738.85
2019-02-24T21:35:19.377Z,102738.85
2019-02-24T21:37:48.217Z,102735.70
2019-02-24T21:40:18.793Z,102740.12
2019-02-24T21:42:47.618Z,102727.69
2019-02-24T21:45:21.678Z,102734.27
2019-02-24T21:47:49.470Z,102734.27
2019-02-24T21:50:18.347Z,102735.22
2019-02-24T21:52:47.143Z,102737.42
2019-02-24T21:55:15.984Z,102741.39
2019-02-24T21:57:44.700Z,102736.48
2019-02-24T22:00:21.628Z,102731.17
2019-02-24T22:02:50.215Z,102734.61
2019-02-24T22:05:18.820Z,102734.61
2019-02-24T22:07:47.538Z,102738.14
2019-02-24T22:10:16.742Z,102742.11
2019-02-24T22:12:45.505Z,102739.02
2019-02-24T22:15:21.931Z,102743.00
2019-02-24T22:17:50.429Z,102739.02
2019-02-24T22:20:19.019Z,102745.66
2019-02-24T22:22:47.881Z,102755.73
2019-02-24T22:25:16.679Z,102755.83
2019-02-24T22:27:45.284Z,102756.36
2019-02-24T22:30:16.260Z,102751.13
2019-02-24T22:32:44.771Z,102760.17
2019-02-24T22:35:13.367Z,102766.44
2019-02-24T22:37:42.048Z,102768.06
2019-02-24T22:40:16.603Z,102770.98
2019-02-24T22:42:46.526Z,102777.42
2019-02-24T22:45:20.043Z,102771.91
2019-02-24T22:47:48.840Z,102775.69
2019-02-24T22:50:17.630Z,102768.69
2019-02-24T22:52:46.826Z,102768.03
2019-02-24T22:55:16.540Z,102768.33
2019-02-24T22:57:45.128Z,102759.34
2019-02-24T23:00:54.634Z,102764.64
2019-02-24T23:03:31.750Z,102762.86
2019-02-24T23:06:00.643Z,102764.14
2019-02-24T23:08:29.258Z,102770.31
2019-02-24T23:10:57.850Z,102769.02
2019-02-24T23:13:26.687Z,102762.00
2019-02-24T23:15:55.200Z,102770.03
2019-02-24T23:18:23.753Z,102767.58
2019-02-24T23:20:52.403Z,102774.84
2019-02-24T23:23:20.875Z,102766.23
2019-02-24T23:25:49.513Z,102772.16
2019-02-24T23:28:18.053Z,102774.19
2019-02-24T23:30:46.505Z,102770.84
2019-02-24T23:33:14.977Z,102777.20
2019-02-24T23:35:43.503Z,102775.98
2019-02-24T23:38:12.148Z,102772.13
2019-02-24T23:40:40.750Z,102773.09
2019-02-24T23:43:09.308Z,102776.31
2019-02-24T23:45:38.228Z,102787.06
2019-02-24T23:48:06.854Z,102784.96
2019-02-24T23:50:35.378Z,102782.81
2019-02-24T23:53:04.308Z,102779.33
2019-02-24T23:55:32.794Z,102779.33
2019-02-24T23:58:01.861Z,102783.16
